Time;durP1;ratioP1;P1;durP2;ratioP2;P2;SDS_P1;SDS_P2;PMS_P1;PMS_P2;Temp;Humidity;BMP_temperature;BMP_pressure;BME280_temperature;BME280_humidity;BME280_pressure;Samples;Min_cycle;Max_cycle;Signal;HPM_P1;HPM_P2
2023/02/14 00:02:02;;;;;;;124.60;74.00;;;;;;;-1.60;89.10;98845.27;110221;1244;58881;-72
2023/02/14 00:04:32;;;;;;;;;;;;;;;-1.61;88.69;98840.48;110296;1241;58884;-71
2023/02/14 00:07:01;;;;;;;118.10;71.40;;;;;;;-1.62;88.51;98837.40;110283;1244;69649;-71
2023/02/14 00:09:31;;;;;;;111.50;69.00;;;;;;;-1.63;87.77;98835.85;110180;1244;69378;-71
2023/02/14 00:12:01;;;;;;;111.80;69.20;;;;;;;-1.62;86.80;98835.85;110096;1241;69007;-71
2023/02/14 00:17:19;;;;;;;129.60;74.10;;;;;;;-1.64;89.40;98837.40;110138;1241;58915;-72
2023/02/14 00:19:49;;;;;;;133.40;75.20;;;;;;;-1.66;87.97;98821.52;110259;1244;68951;-72
2023/02/14 00:22:18;;;;;;;134.60;78.80;;;;;;;-1.67;86.85;98829.19;110250;1244;69906;-72
2023/02/14 00:24:47;;;;;;;123.20;73.70;;;;;;;-1.68;89.66;98840.47;110108;1244;69194;-72
2023/02/14 00:27:16;;;;;;;119.90;71.80;;;;;;;-1.67;90.02;98830.56;110109;1243;58909;-72
2023/02/14 00:29:45;;;;;;;119.60;68.00;;;;;;;-1.65;89.55;98826.98;110330;1242;58881;-72
2023/02/14 00:32:15;;;;;;;124.90;71.20;;;;;;;-1.66;90.45;98841.50;110218;1242;71052;-72
2023/02/14 00:34:45;;;;;;;122.30;71.40;;;;;;;-1.66;89.99;98841.34;110237;1241;69321;-72
2023/02/14 00:37:14;;;;;;;112.50;65.60;;;;;;;-1.66;90.28;98829.02;110224;1243;68230;-72
2023/02/14 00:39:45;;;;;;;114.10;68.20;;;;;;;-1.63;90.29;98832.61;110262;1243;58902;-72
2023/02/14 00:42:15;;;;;;;105.80;59.40;;;;;;;-1.62;90.85;98819.29;110230;1244;58878;-72
2023/02/14 00:44:46;;;;;;;111.80;65.30;;;;;;;-1.60;90.71;98812.77;110229;1244;70596;-72
2023/02/14 00:47:15;;;;;;;128.60;76.40;;;;;;;-1.58;89.21;98803.36;110252;1244;69502;-72
2023/02/14 00:49:45;;;;;;;125.50;74.60;;;;;;;-1.63;87.75;98800.98;110059;1244;69719;-72
2023/02/14 00:52:14;;;;;;;129.80;79.30;;;;;;;-1.65;87.09;98780.66;110262;1243;58873;-72
2023/02/14 00:54:43;;;;;;;127.80;73.10;;;;;;;-1.70;87.61;98772.45;110198;1244;58857;-72
2023/02/14 00:57:14;;;;;;;114.00;66.30;;;;;;;-1.76;89.79;98786.48;110268;1243;70479;-72
2023/02/14 00:59:44;;;;;;;122.90;73.50;;;;;;;-1.77;89.54;98783.75;110201;1241;68462;-72
2023/02/14 01:02:14;;;;;;;108.90;64.50;;;;;;;-1.81;91.01;98797.58;110226;1243;69098;-72
2023/02/14 01:04:44;;;;;;;90.60;51.80;;;;;;;-1.82;91.42;98799.13;109876;1241;58894;-72
2023/02/14 01:07:13;;;;;;;71.50;40.70;;;;;;;-1.79;90.29;98783.23;110157;1244;58880;-72
2023/02/14 01:09:42;;;;;;;58.30;36.10;;;;;;;-1.74;89.22;98782.02;110238;1243;70650;-72
2023/02/14 01:12:13;;;;;;;;;;;;;;;-1.68;88.89;98785.44;110325;1245;68290;-71
2023/02/14 01:14:43;;;;;;;63.20;37.80;;;;;;;-1.65;88.68;98770.90;110100;1241;67543;-72
2023/02/14 01:17:14;;;;;;;63.70;37.40;;;;;;;-1.61;87.84;98760.98;110250;1244;58877;-72
2023/02/14 01:19:44;;;;;;;67.30;38.20;;;;;;;-1.60;87.65;98754.48;110268;1241;58876;-72
2023/02/14 01:22:14;;;;;;;59.60;34.40;;;;;;;-1.59;87.38;98745.76;110200;1244;70614;-72
2023/02/14 01:24:46;;;;;;;70.50;42.10;;;;;;;-1.57;87.31;98747.81;110116;1242;68412;-72
2023/02/14 01:27:16;;;;;;;70.50;43.70;;;;;;;-1.55;87.84;98744.89;110263;1241;69174;-72
2023/02/14 01:29:47;;;;;;;84.30;46.70;;;;;;;-1.54;88.74;98739.23;110289;1241;58867;-72
2023/02/14 01:32:17;;;;;;;80.20;44.20;;;;;;;-1.53;88.20;98735.98;110244;1244;58945;-72
2023/02/14 01:34:48;;;;;;;77.00;45.20;;;;;;;-1.54;87.15;98732.73;110268;1241;70660;-72
2023/02/14 01:37:18;;;;;;;74.40;42.80;;;;;;;-1.53;87.18;98730.16;110254;1243;69220;-72
2023/02/14 01:39:48;;;;;;;76.80;44.10;;;;;;;-1.53;86.86;98727.77;110243;1244;69420;-72
2023/02/14 01:42:19;;;;;;;80.70;49.00;;;;;;;-1.52;87.95;98729.49;110262;1244;58912;-72
2023/02/14 01:44:57;;;;;;;91.50;51.10;;;;;;;-1.52;89.28;98725.05;109891;1244;58924;-72
2023/02/14 01:47:32;;;;;;;92.50;53.00;;;;;;;-1.51;88.91;98720.44;110171;1244;69817;-73
2023/02/14 01:50:14;;;;;;;80.80;46.90;;;;;;;-1.50;89.16;98723.33;110247;1244;69422;-72
2023/02/14 01:52:52;;;;;;;76.50;47.70;;;;;;;-1.48;89.63;98717.85;110179;1243;68533;-72
2023/02/14 01:55:28;;;;;;;74.70;44.60;;;;;;;-1.46;89.65;98717.50;110260;1241;58961;-70
2023/02/14 01:58:20;;;;;;;77.20;45.20;;;;;;;-1.43;88.85;98709.96;110109;1244;58840;-71
2023/02/14 02:00:56;;;;;;;88.00;50.60;;;;;;;-1.42;87.81;98700.21;110102;1244;70288;-71
2023/02/14 02:03:38;;;;;;;79.40;48.10;;;;;;;-1.43;87.13;98701.91;110163;1244;69264;-71
2023/02/14 02:06:14;;;;;;;95.70;54.20;;;;;;;-1.45;86.89;98697.65;110240;1244;68420;-71
2023/02/14 02:08:57;;;;;;;88.10;52.00;;;;;;;-1.48;86.46;98693.56;110189;1244;58960;-71
2023/02/14 02:11:28;;;;;;;94.10;53.70;;;;;;;-1.51;88.85;98702.48;110218;1244;58906;-72
2023/02/14 02:13:57;;;;;;;82.60;50.20;;;;;;;-1.52;88.88;98695.81;110100;1241;71209;-71
2023/02/14 02:16:47;;;;;;;87.00;50.40;;;;;;;-1.56;87.19;98695.30;110107;1244;69597;-71
2023/02/14 02:19:21;;;;;;;71.80;43.30;;;;;;;-1.62;88.16;98687.81;110105;1245;69206;-71
2023/02/14 02:22:10;;;;;;;75.60;44.70;;;;;;;-1.63;88.48;98690.89;110106;1242;58916;-71
2023/02/14 02:25:01;;;;;;;73.90;42.50;;;;;;;-1.63;88.56;98691.05;110089;1241;58915;-71
2023/02/14 02:28:04;;;;;;;77.50;43.40;;;;;;;-1.65;87.55;98690.72;109977;1244;68801;-73
2023/02/14 02:30:56;;;;;;;75.10;40.50;;;;;;;-1.67;88.47;98691.06;110134;1248;69309;-72
2023/02/14 02:33:39;;;;;;;66.60;39.50;;;;;;;-1.65;89.25;98689.02;110105;1244;69305;-73
2023/02/14 02:36:47;;;;;;;58.70;35.00;;;;;;;-1.61;89.41;98696.19;110265;1246;58869;-73
2023/02/14 02:39:39;;;;;;;64.40;37.50;;;;;;;-1.59;89.42;98689.67;110260;1243;58937;-72
2023/02/14 02:42:30;;;;;;;72.30;37.50;;;;;;;-1.56;89.35;98685.39;110286;1244;70569;-71
2023/02/14 02:45:22;;;;;;;63.10;36.10;;;;;;;-1.54;89.67;98683.51;110261;1244;69413;-73
2023/02/14 02:48:08;;;;;;;65.90;35.60;;;;;;;-1.55;89.53;98679.58;110084;1244;68432;-71
2023/02/14 02:53:57;;;;;;;64.60;37.00;;;;;;;-1.57;89.61;98678.56;110248;1241;58913;-72
2023/02/14 02:56:45;;;;;;;72.60;38.30;;;;;;;-1.59;90.19;98675.66;110120;1244;70503;-71
2023/02/14 02:59:21;;;;;;;63.10;34.80;;;;;;;-1.60;90.25;98675.16;110077;1243;69605;-72
2023/02/14 03:02:12;;;;;;;67.60;36.70;;;;;;;-1.61;90.40;98677.38;110262;1245;69502;-72
2023/02/14 03:04:52;;;;;;;67.50;35.70;;;;;;;-1.60;89.98;98673.95;110045;1241;58915;-72
2023/02/14 03:07:39;;;;;;;67.20;39.40;;;;;;;-1.62;90.51;98670.89;110109;1244;58937;-72
2023/02/14 03:10:23;;;;;;;63.20;37.40;;;;;;;-1.63;90.77;98676.18;110141;1241;70599;-71
2023/02/14 03:13:22;;;;;;;70.90;38.80;;;;;;;-1.63;90.82;98672.60;110103;1245;69532;-72
2023/02/14 03:16:09;;;;;;;67.00;37.10;;;;;;;-1.63;90.95;98670.71;110065;1241;69329;-72
2023/02/14 03:18:50;;;;;;;64.70;37.40;;;;;;;-1.64;91.10;98669.18;110038;1241;58923;-72
2023/02/14 03:21:41;;;;;;;65.00;35.20;;;;;;;-1.66;91.38;98665.95;110234;1244;58938;-71
2023/02/14 03:24:17;;;;;;;60.60;36.20;;;;;;;-1.65;91.52;98665.95;110124;1242;71147;-72
2023/02/14 03:27:14;;;;;;;64.00;34.20;;;;;;;-1.66;91.67;98663.90;110095;1244;68800;-71
2023/02/14 03:29:47;;;;;;;60.50;34.50;;;;;;;-1.64;91.74;98665.42;110125;1245;68411;-72
2023/02/14 03:32:40;;;;;;;67.10;37.30;;;;;;;-1.64;91.63;98667.65;110266;1244;58941;-73
2023/02/14 03:35:22;;;;;;;65.80;36.10;;;;;;;-1.63;91.49;98666.27;110102;1244;58839;-73
2023/02/14 03:38:32;;;;;;;62.60;35.50;;;;;;;-1.64;91.58;98672.44;110121;1242;70442;-72
2023/02/14 03:41:10;;;;;;;58.60;33.40;;;;;;;-1.65;92.04;98672.95;109532;1251;69246;-72
2023/02/14 03:43:47;;;;;;;57.00;34.00;;;;;;;-1.64;92.09;98672.09;110001;1244;69185;-72
2023/02/14 03:46:32;;;;;;;61.90;37.30;;;;;;;-1.63;91.83;98670.72;110227;1244;58920;-73
2023/02/14 03:49:09;;;;;;;63.30;34.80;;;;;;;-1.61;91.46;98670.55;110259;1243;58878;-72
2023/02/14 03:51:40;;;;;;;61.80;34.70;;;;;;;-1.63;91.86;98664.90;110253;1243;69683;-72
2023/02/14 03:54:12;;;;;;;60.80;32.70;;;;;;;-1.62;91.63;98665.25;110252;1242;69128;-73
2023/02/14 03:56:51;;;;;;;58.70;33.40;;;;;;;-1.63;91.90;98666.61;110211;1245;69306;-72
2023/02/14 03:59:27;;;;;;;64.80;36.90;;;;;;;-1.61;91.58;98660.12;110267;1243;59018;-72
2023/02/14 04:02:37;;;;;;;61.50;33.00;;;;;;;-1.59;91.12;98651.72;110273;1241;59005;-73
2023/02/14 04:05:16;;;;;;;58.70;33.10;;;;;;;-1.58;91.13;98651.38;109487;1249;69624;-71
2023/02/14 04:07:52;;;;;;;60.10;34.70;;;;;;;-1.59;91.23;98644.88;110031;1244;69290;-73
2023/02/14 04:10:23;;;;;;;61.00;34.30;;;;;;;-1.59;91.62;98650.02;110263;1242;68329;-71
2023/02/14 04:12:53;;;;;;;65.20;36.50;;;;;;;-1.60;91.64;98656.52;110070;1241;58902;-71
2023/02/14 04:15:23;;;;;;;64.70;35.80;;;;;;;-1.57;91.07;98652.05;110149;1241;58979;-71
2023/02/14 04:20:40;;;;;;;64.70;35.80;;;;;;;-1.59;91.48;98652.07;110231;1244;69876;-72
2023/02/14 04:23:10;;;;;;;65.50;35.00;;;;;;;-1.60;91.60;98646.60;110140;1244;68507;-72
2023/02/14 04:25:41;;;;;;;59.00;32.80;;;;;;;-1.58;91.41;98648.98;110233;1241;58917;-72
2023/02/14 04:28:11;;;;;;;66.60;36.50;;;;;;;-1.57;91.05;98650.20;110131;1244;59283;-71
2023/02/14 04:30:40;;;;;;;60.90;34.00;;;;;;;-1.57;90.91;98650.17;110259;1241;70567;-72
2023/02/14 04:33:10;;;;;;;56.70;34.40;;;;;;;-1.58;91.09;98659.23;110118;1241;69365;-72
2023/02/14 04:35:40;;;;;;;;;;;;;;;-1.54;90.58;98656.14;110240;1241;69141;-72
2023/02/14 04:38:09;;;;;;;66.70;37.00;;;;;;;-1.55;90.71;98646.23;110224;1243;58889;-71
2023/02/14 04:40:38;;;;;;;63.90;35.90;;;;;;;-1.58;90.99;98639.93;110058;1244;58901;-71
2023/02/14 04:43:07;;;;;;;61.40;33.40;;;;;;;-1.58;90.64;98639.58;110072;1244;70623;-71
2023/02/14 04:45:36;;;;;;;64.10;35.50;;;;;;;-1.59;91.08;98635.98;110185;1243;69266;-71
2023/02/14 04:48:06;;;;;;;55.50;31.70;;;;;;;-1.60;91.12;98637.02;110095;1244;69228;-71
2023/02/14 04:50:36;;;;;;;65.80;35.40;;;;;;;-1.59;90.90;98641.13;110124;1243;58932;-71
2023/02/14 04:53:06;;;;;;;64.80;36.70;;;;;;;-1.60;91.27;98643.19;110102;1245;58896;-71
2023/02/14 04:55:35;;;;;;;66.20;35.90;;;;;;;-1.60;91.40;98641.98;110110;1241;70576;-71
2023/02/14 04:58:05;;;;;;;63.40;35.70;;;;;;;-1.61;91.51;98644.39;110234;1245;68477;-71
2023/02/14 05:00:34;;;;;;;58.50;36.40;;;;;;;-1.57;90.93;98644.71;110098;1241;70298;-71
2023/02/14 05:03:03;;;;;;;62.10;35.90;;;;;;;-1.58;91.22;98643.86;110124;1241;58960;-72
2023/02/14 05:05:33;;;;;;;60.00;36.10;;;;;;;-1.60;91.70;98636.00;110121;1242;58935;-72
2023/02/14 05:08:02;;;;;;;65.40;39.90;;;;;;;-1.58;91.37;98638.05;110081;1241;71027;-73
2023/02/14 05:10:31;;;;;;;62.10;35.60;;;;;;;-1.59;91.48;98633.27;110301;1244;69190;-72
2023/02/14 05:13:01;;;;;;;61.10;34.70;;;;;;;-1.62;91.85;98630.36;110105;1241;68528;-72
2023/02/14 05:15:29;;;;;;;54.90;32.10;;;;;;;-1.60;91.64;98627.96;110166;1244;58945;-71
2023/02/14 05:18:01;;;;;;;60.00;38.00;;;;;;;-1.58;91.57;98633.61;110152;1244;58866;-73
2023/02/14 05:20:31;;;;;;;63.30;34.20;;;;;;;-1.58;91.68;98638.22;110171;1244;70616;-72
2023/02/14 05:23:02;;;;;;;;;;;;;;;-1.59;91.69;98644.38;110160;1244;69173;-72
2023/02/14 05:25:31;;;;;;;52.30;28.00;;;;;;;-1.64;92.30;98650.55;109947;1245;469949;-74
2023/02/14 05:28:00;;;;;;;58.20;30.60;;;;;;;-1.63;92.43;98650.70;110076;1244;58962;-72
2023/02/14 05:30:29;;;;;;;62.60;33.10;;;;;;;-1.62;92.41;98658.58;110257;1244;58882;-72
2023/02/14 05:32:59;;;;;;;53.40;31.50;;;;;;;-1.59;91.98;98656.34;110273;1241;70441;-71
2023/02/14 05:35:30;;;;;;;59.00;33.00;;;;;;;-1.56;91.62;98650.85;110154;1243;68474;-73
2023/02/14 05:38:00;;;;;;;59.30;33.20;;;;;;;-1.54;91.58;98646.73;110158;1244;68523;-71
2023/02/14 05:40:29;;;;;;;58.40;31.80;;;;;;;-1.52;91.23;98646.90;110145;1243;58874;-73
2023/02/14 05:42:58;;;;;;;57.60;34.80;;;;;;;-1.53;91.45;98645.03;110173;1241;58910;-72
2023/02/14 05:45:27;;;;;;;58.90;33.80;;;;;;;-1.51;91.36;98646.91;110309;1244;69578;-72
2023/02/14 05:47:55;;;;;;;63.60;35.00;;;;;;;-1.50;91.28;98645.71;110275;1250;69259;-72
2023/02/14 05:50:25;;;;;;;59.80;33.40;;;;;;;-1.51;91.46;98651.35;110386;1244;70441;-71
2023/02/14 05:52:55;;;;;;;56.80;34.00;;;;;;;-1.47;91.59;98647.05;110180;1242;58946;-71
2023/02/14 05:55:25;;;;;;;;;;;;;;;-1.43;91.45;98647.20;110202;1245;58824;-72
2023/02/14 05:57:53;;;;;;;52.90;29.80;;;;;;;-1.42;91.35;98648.23;110241;1243;70614;-72
2023/02/14 06:00:23;;;;;;;47.20;27.60;;;;;;;-1.40;91.14;98648.38;110268;1244;68527;-71
2023/02/14 06:02:52;;;;;;;52.70;28.90;;;;;;;-1.37;91.15;98654.18;110116;1244;68935;-72
2023/02/14 06:05:22;;;;;;;50.30;28.10;;;;;;;-1.34;91.69;98653.30;110161;1244;58940;-71
2023/02/14 06:07:52;;;;;;;49.60;26.30;;;;;;;-1.30;91.27;98651.05;110263;1241;58863;-71
2023/02/14 06:10:22;;;;;;;41.70;25.70;;;;;;;-1.26;90.98;98648.13;110268;1244;69951;-71
2023/02/14 06:12:52;;;;;;;48.00;28.10;;;;;;;-1.23;90.82;98650.69;110194;1244;69158;-71
2023/02/14 06:15:22;;;;;;;52.20;29.90;;;;;;;-1.20;90.45;98659.73;110249;1244;69884;-74
2023/02/14 06:17:54;;;;;;;46.20;28.90;;;;;;;-1.18;90.53;98661.77;110124;1241;58971;-71
2023/02/14 06:20:23;;;;;;;51.10;29.10;;;;;;;-1.14;90.30;98660.39;110152;1244;59220;-71
2023/02/14 06:22:53;;;;;;;55.90;30.70;;;;;;;-1.12;90.18;98657.11;110271;1245;70072;-71
2023/02/14 06:25:23;;;;;;;55.00;31.50;;;;;;;-1.08;90.11;98659.65;110268;1243;69925;-71
2023/02/14 06:27:56;;;;;;;;;;;;;;;-1.08;90.19;98662.05;110297;1244;69117;-71
2023/02/14 06:30:26;;;;;;;47.50;27.10;;;;;;;-1.07;90.30;98659.30;110238;1244;58915;-71
2023/02/14 06:32:55;;;;;;;52.20;28.60;;;;;;;-1.05;90.18;98659.29;110084;1245;58928;-71
2023/02/14 06:35:24;;;;;;;49.00;29.70;;;;;;;-1.02;90.05;98663.38;109934;1244;71169;-71
2023/02/14 06:37:54;;;;;;;48.30;27.70;;;;;;;-0.99;89.92;98667.48;110248;1244;68460;-71
2023/02/14 06:40:23;;;;;;;52.00;30.80;;;;;;;-0.95;89.63;98667.27;110242;1241;69299;-72
2023/02/14 06:42:51;;;;;;;48.40;27.80;;;;;;;-0.92;89.55;98673.77;110228;1241;58869;-71
2023/02/14 06:45:20;;;;;;;47.40;27.20;;;;;;;-0.88;89.51;98670.99;110113;1244;58941;-71
2023/02/14 06:47:49;;;;;;;43.60;26.10;;;;;;;-0.84;89.42;98672.15;110245;1243;69611;-71
2023/02/14 06:50:18;;;;;;;43.90;25.60;;;;;;;-0.80;89.19;98669.91;110178;1244;69423;-71
2023/02/14 06:52:47;;;;;;;50.90;29.40;;;;;;;-0.77;88.97;98668.69;110126;1241;69076;-71
2023/02/14 06:55:18;;;;;;;46.60;27.60;;;;;;;-0.73;88.93;98662.48;109958;1244;58961;-70
2023/02/14 06:57:47;;;;;;;44.90;26.40;;;;;;;-0.70;88.86;98658.87;110264;1244;58889;-70
2023/02/14 07:00:17;;;;;;;57.20;32.80;;;;;;;-0.65;88.85;98655.75;110143;1243;71356;-71
2023/02/14 07:02:46;;;;;;;55.30;31.90;;;;;;;-0.62;89.22;98651.61;110270;1244;69891;-71
2023/02/14 07:05:17;;;;;;;46.90;27.90;;;;;;;-0.57;89.31;98655.68;110249;1241;69259;-71
2023/02/14 07:07:47;;;;;;;42.90;27.70;;;;;;;-0.52;89.09;98649.98;110191;1244;58843;-71
2023/02/14 07:10:15;;;;;;;45.40;27.10;;;;;;;-0.49;88.83;98650.14;110255;1241;58941;-72
2023/02/14 07:12:44;;;;;;;51.10;29.80;;;;;;;-0.45;89.17;98655.92;110116;1243;71018;-74
2023/02/14 07:15:14;;;;;;;50.70;30.90;;;;;;;-0.42;89.64;98659.14;110150;1241;69065;-73
2023/02/14 07:17:43;;;;;;;48.60;29.00;;;;;;;-0.38;89.54;98655.17;110134;1244;69855;-73
2023/02/14 07:20:12;;;;;;;41.10;25.00;;;;;;;-0.33;89.15;98651.17;110169;1241;59020;-72
2023/02/14 07:22:41;;;;;;;49.10;30.20;;;;;;;-0.30;89.11;98650.98;110137;1241;58867;-74
2023/02/14 07:25:11;;;;;;;48.90;28.30;;;;;;;-0.26;88.97;98650.59;110265;1241;71078;-73
2023/02/14 07:27:40;;;;;;;45.20;27.00;;;;;;;-0.21;88.66;98652.44;110228;1244;69868;-73
2023/02/14 07:30:10;;;;;;;43.80;26.00;;;;;;;-0.16;88.57;98652.05;110027;1241;68510;-73
2023/02/14 07:32:39;;;;;;;37.20;23.00;;;;;;;-0.09;88.30;98646.50;110236;1244;58898;-74
2023/02/14 07:35:09;;;;;;;47.10;31.00;;;;;;;-0.05;88.20;98650.05;110239;1241;58914;-74
2023/02/14 07:37:37;;;;;;;83.10;41.50;;;;;;;-0.03;88.01;98652.78;110061;1241;70599;-74
2023/02/14 07:40:08;;;;;;;47.50;28.50;;;;;;;-0.02;87.81;98647.95;110217;1242;69819;-72
2023/02/14 07:42:43;;;;;;;48.40;28.00;;;;;;;0.03;87.82;98652.88;110204;1244;69154;-70
2023/02/14 07:45:12;;;;;;;45.10;26.80;;;;;;;0.08;88.01;98656.60;110097;1244;58991;-71
2023/02/14 07:47:51;;;;;;;49.70;28.50;;;;;;;0.13;87.77;98657.23;110140;1243;58895;-71
2023/02/14 07:50:21;;;;;;;48.60;27.40;;;;;;;0.17;87.94;98654.78;110118;1241;70602;-73
2023/02/14 07:52:50;;;;;;;;;;;;;;;0.26;87.73;98650.73;110106;1244;69783;-73
2023/02/14 07:55:19;;;;;;;45.00;26.20;;;;;;;0.30;87.06;98652.56;110207;1241;69267;-74
2023/02/14 07:57:48;;;;;;;42.80;25.40;;;;;;;0.33;86.64;98646.02;110250;1244;58901;-73
2023/02/14 08:00:18;;;;;;;43.70;25.80;;;;;;;0.37;86.50;98651.45;110274;1243;58971;-73
2023/02/14 08:02:47;;;;;;;42.50;26.20;;;;;;;0.40;86.43;98652.27;110244;1241;70790;-72
2023/02/14 08:05:16;;;;;;;;;;;;;;;0.42;86.32;98647.98;110095;1244;69231;-72
2023/02/14 08:07:45;;;;;;;39.30;22.80;;;;;;;0.44;86.31;98650.52;110116;1241;69139;-72
2023/02/14 08:10:14;;;;;;;52.80;31.90;;;;;;;0.50;86.08;98655.24;110256;1244;58912;-72
2023/02/14 08:12:58;;;;;;;40.30;23.10;;;;;;;0.56;86.02;98655.34;110109;1245;58872;-73
2023/02/14 08:18:26;;;;;;;41.80;23.60;;;;;;;0.72;85.61;98655.98;110263;1244;69243;-73
2023/02/14 08:20:54;;;;;;;46.40;26.40;;;;;;;0.78;85.29;98658.99;110076;1243;68811;-73
2023/02/14 08:23:23;;;;;;;43.80;25.40;;;;;;;0.86;85.09;98658.89;109923;1241;58932;-73
2023/02/14 08:25:53;;;;;;;39.20;22.20;;;;;;;0.90;84.77;98656.25;110167;1243;58891;-72
2023/02/14 08:28:24;;;;;;;32.90;20.30;;;;;;;0.96;84.40;98658.73;110120;1244;70165;-73
2023/02/14 08:30:53;;;;;;;36.00;20.80;;;;;;;1.07;84.50;98656.70;110268;1243;69206;-73
2023/02/14 08:33:22;;;;;;;35.90;20.90;;;;;;;1.15;84.15;98657.42;110085;1243;69909;-73
2023/02/14 08:35:51;;;;;;;36.70;21.40;;;;;;;1.23;83.96;98655.40;110088;1244;58895;-73
2023/02/14 08:38:20;;;;;;;32.80;18.90;;;;;;;1.32;83.86;98656.13;110136;1244;58824;-73
2023/02/14 08:40:49;;;;;;;32.80;19.30;;;;;;;1.39;83.12;98656.19;110117;1244;71244;-75
2023/02/14 08:43:19;;;;;;;31.10;18.90;;;;;;;1.43;82.74;98656.48;110131;1244;69410;-74
2023/02/14 08:45:52;;;;;;;26.30;16.10;;;;;;;1.53;85.49;98656.83;110395;1242;69243;-73
2023/02/14 08:48:22;;;;;;;34.70;18.60;;;;;;;1.65;85.39;98669.51;110403;1241;59263;-72
2023/02/14 08:50:51;;;;;;;29.10;16.90;;;;;;;1.72;83.76;98672.66;110449;1245;58844;-74
2023/02/14 08:53:21;;;;;;;33.10;18.60;;;;;;;1.80;83.49;98664.44;110149;1244;69795;-73
2023/02/14 08:55:50;;;;;;;29.10;16.80;;;;;;;1.82;82.28;98667.48;110094;1244;69903;-74
2023/02/14 08:58:19;;;;;;;30.50;18.20;;;;;;;1.83;81.90;98678.64;110119;1244;69107;-73
2023/02/14 09:00:47;;;;;;;30.10;17.50;;;;;;;1.72;81.41;98681.76;110262;1241;58871;-74
2023/02/14 09:03:16;;;;;;;31.00;17.80;;;;;;;1.75;81.53;98684.79;110226;1241;58944;-75
2023/02/14 09:05:45;;;;;;;26.50;16.40;;;;;;;1.76;81.52;98692.16;110243;1241;71148;-73
2023/02/14 09:08:14;;;;;;;30.80;17.70;;;;;;;1.74;81.75;98690.15;110252;1242;69111;-74
2023/02/14 09:10:42;;;;;;;28.40;17.40;;;;;;;1.76;82.26;98688.73;110233;1242;69713;-73
2023/02/14 09:13:11;;;;;;;27.60;16.60;;;;;;;1.78;81.96;98696.08;110220;1244;58897;-73
2023/02/14 09:15:39;;;;;;;31.40;18.50;;;;;;;1.82;81.70;98702.21;110118;1242;58960;-73
2023/02/14 09:18:08;;;;;;;32.30;18.30;;;;;;;1.83;81.42;98704.09;110133;1244;70545;-74
2023/02/14 09:20:37;;;;;;;34.20;19.90;;;;;;;1.78;81.20;98699.87;110160;1241;69585;-73
2023/02/14 09:23:06;;;;;;;31.40;18.30;;;;;;;1.76;81.17;98698.54;110110;1241;69344;-73
2023/02/14 09:25:37;;;;;;;33.00;19.70;;;;;;;1.80;81.20;98699.34;110258;1242;58919;-73
2023/02/14 09:28:06;;;;;;;30.40;18.50;;;;;;;1.82;81.11;98701.36;110095;1244;58853;-73
2023/02/14 10:04:37;;;;;;;23.10;16.00;;;;;;;4.31;72.86;98668.09;107205;1273;610102;-75
2023/02/14 10:07:20;;;;;;;24.30;16.00;;;;;;;5.08;69.39;98661.84;109089;1253;219629;-75
2023/02/14 10:10:07;;;;;;;22.80;15.00;;;;;;;5.48;71.22;98664.20;109216;1255;57699;-74
2023/02/14 10:12:50;;;;;;;23.60;15.40;;;;;;;5.61;70.08;98661.36;109363;1253;69348;-74
2023/02/14 10:15:33;;;;;;;28.80;18.00;;;;;;;5.25;66.39;98662.88;109344;1254;67755;-75
2023/02/14 10:18:05;;;;;;;22.40;14.70;;;;;;;5.07;66.88;98658.41;109165;1255;69614;-75
2023/02/14 10:20:43;;;;;;;22.90;15.20;;;;;;;5.22;68.19;98649.98;109260;1253;57711;-75
2023/02/14 10:23:33;;;;;;;21.80;13.90;;;;;;;5.71;67.30;98649.62;109299;1255;57679;-74
2023/02/14 10:26:08;;;;;;;;;;;;;;;6.29;61.90;98640.02;109313;1253;68228;-74
2023/02/14 10:28:47;;;;;;;25.70;15.70;;;;;;;7.09;62.03;98637.54;109323;1253;69279;-75
2023/02/14 10:31:21;;;;;;;23.80;15.70;;;;;;;7.59;60.88;98628.59;109248;1254;69070;-74
2023/02/14 10:34:06;;;;;;;23.30;16.30;;;;;;;7.67;60.52;98627.22;109051;1255;58144;-75
2023/02/14 10:36:47;;;;;;;21.90;15.20;;;;;;;7.22;57.73;98624.31;109187;1256;58114;-73
2023/02/14 10:39:27;;;;;;;27.80;17.40;;;;;;;6.66;58.90;98622.89;109331;1254;69497;-74
2023/02/14 10:41:56;;;;;;;22.20;15.80;;;;;;;5.78;60.63;98621.01;109335;1253;69111;-75
2023/02/14 10:44:34;;;;;;;20.50;15.00;;;;;;;6.29;60.67;98618.23;109852;1248;69307;-74
2023/02/14 10:47:23;;;;;;;22.90;15.90;;;;;;;6.60;59.75;98614.63;109834;1247;58171;-74
2023/02/14 10:50:16;;;;;;;19.90;13.30;;;;;;;6.84;59.51;98621.33;109844;1247;58131;-74
2023/02/14 10:53:07;;;;;;;21.40;14.50;;;;;;;6.78;58.81;98618.28;109838;1247;69752;-75
2023/02/14 10:55:50;;;;;;;20.90;13.10;;;;;;;6.60;59.30;98618.44;109850;1247;69167;-74
2023/02/14 10:58:21;;;;;;;19.90;13.70;;;;;;;6.73;58.03;98613.27;109792;1247;69193;-74
2023/02/14 11:00:59;;;;;;;19.90;14.30;;;;;;;7.00;59.39;98615.52;109795;1247;58112;-75
2023/02/14 11:03:29;;;;;;;21.40;14.90;;;;;;;6.86;57.67;98614.67;109756;1247;58032;-74
2023/02/14 11:05:58;;;;;;;21.80;14.80;;;;;;;7.19;58.33;98617.35;109803;1248;68861;-75
2023/02/14 11:08:39;;;;;;;19.40;13.70;;;;;;;7.80;56.82;98615.35;109801;1247;69162;-74
2023/02/14 11:11:13;;;;;;;19.20;13.20;;;;;;;8.49;55.50;98616.70;109800;1248;69047;-74
2023/02/14 11:13:42;;;;;;;18.90;13.90;;;;;;;9.23;53.01;98613.80;109768;1247;58076;-74
2023/02/14 11:16:32;;;;;;;19.40;13.40;;;;;;;9.81;52.79;98606.73;109807;1248;58099;-74
2023/02/14 11:19:28;;;;;;;17.70;13.00;;;;;;;9.23;50.29;98604.36;109832;1248;69582;-74
2023/02/14 11:22:04;;;;;;;17.90;13.40;;;;;;;10.35;49.36;98596.12;109822;1248;68778;-74
2023/02/14 11:24:44;;;;;;;14.20;10.90;;;;;;;10.91;48.69;98598.49;109641;1248;68760;-74
2023/02/14 11:27:18;;;;;;;17.20;12.80;;;;;;;11.27;46.40;98601.02;109785;1248;58107;-72
2023/02/14 11:29:51;;;;;;;15.00;11.70;;;;;;;11.84;47.51;98601.75;109610;1247;58126;-74
2023/02/14 11:32:21;;;;;;;15.80;11.90;;;;;;;11.59;45.05;98594.45;109627;1247;68843;-73
2023/02/14 11:35:05;;;;;;;16.20;12.20;;;;;;;11.16;45.21;98594.30;109723;1248;69643;-74
2023/02/14 11:37:48;;;;;;;17.30;13.00;;;;;;;11.23;45.55;98591.29;109624;1248;69902;-73
2023/02/14 11:40:35;;;;;;;16.40;12.20;;;;;;;10.23;45.67;98587.46;109641;1248;58072;-73
2023/02/14 11:43:09;;;;;;;17.80;12.60;;;;;;;9.01;47.74;98597.42;109660;1247;58017;-75
2023/02/14 11:45:43;;;;;;;16.90;12.50;;;;;;;8.08;49.91;98592.78;109685;1248;69779;-75
2023/02/14 11:48:22;;;;;;;15.00;11.40;;;;;;;7.96;50.57;98594.52;109696;1248;69040;-73
2023/02/14 11:51:15;;;;;;;16.70;12.50;;;;;;;7.22;52.03;98589.84;109652;1247;68322;-74
2023/02/14 11:53:49;;;;;;;18.60;12.40;;;;;;;6.24;54.83;98583.94;109797;1247;58148;-74
2023/02/14 11:56:19;;;;;;;14.80;11.40;;;;;;;5.97;56.02;98578.99;109778;1246;58053;-73
2023/02/14 11:58:51;;;;;;;17.80;12.30;;;;;;;5.93;56.08;98570.34;109762;1246;69868;-74
2023/02/14 12:01:24;;;;;;;15.60;10.70;;;;;;;5.99;56.17;98572.56;109810;1247;68598;-73
2023/02/14 12:03:56;;;;;;;18.20;11.30;;;;;;;5.93;56.50;98576.02;109853;1248;69872;-74
2023/02/14 12:06:29;;;;;;;18.80;13.10;;;;;;;5.74;57.31;98584.50;109630;1248;58105;-73
2023/02/14 12:09:16;;;;;;;17.20;11.40;;;;;;;5.89;57.38;98587.27;109553;1249;58098;-73
2023/02/14 12:12:00;;;;;;;18.10;12.30;;;;;;;6.09;57.05;98582.73;109640;1247;70291;-73
2023/02/14 12:14:34;;;;;;;16.10;11.30;;;;;;;6.24;57.14;98576.31;110270;1244;68100;-73
2023/02/14 12:17:12;;;;;;;18.60;12.30;;;;;;;6.33;57.00;98577.53;110256;1243;69283;-73
2023/02/14 12:19:50;;;;;;;18.90;12.70;;;;;;;6.35;56.84;98570.71;110078;1244;58053;-73
2023/02/14 12:22:30;;;;;;;18.30;11.50;;;;;;;6.34;56.44;98562.08;110108;1245;58066;-73
2023/02/14 12:25:09;;;;;;;17.80;12.50;;;;;;;6.18;56.75;98551.77;110217;1245;69256;-73
2023/02/14 12:27:57;;;;;;;17.60;10.70;;;;;;;5.99;57.51;98551.08;110211;1244;69066;-74
2023/02/14 12:30:31;;;;;;;17.50;12.20;;;;;;;5.92;57.94;98552.35;110065;1244;69214;-73
2023/02/14 12:33:00;;;;;;;17.50;10.90;;;;;;;5.92;57.78;98553.59;110231;1244;58122;-73